ADDS METAR Data INFO
IDs: Format: Raw Decoded Include TAF

Data at: 1123 UTC 17 Jul 2018

KALM 171115Z AUTO 05003KT 10SM CLR 17/15 A3020 RMK AO2
KALM 171055Z AUTO 00000KT 10SM CLR 17/15 A3020 RMK AO2
KALM 171035Z AUTO 00000KT 10SM CLR 17/15 A3020 RMK AO2
KALM 171015Z AUTO 00000KT 10SM CLR 17/16 A3020 RMK AO2
KALM 170955Z AUTO 07004KT 10SM CLR 17/15 A3019 RMK AO2
KALM 170935Z AUTO 35003KT 10SM CLR 19/16 A3019 RMK AO2
KALM 170915Z AUTO 05003KT 10SM CLR 18/15 A3019 RMK AO2
KALM 170855Z AUTO 02005KT 10SM CLR 18/15 A3019 RMK AO2
KALM 170835Z AUTO 01005KT 10SM CLR 18/16 A3019 RMK AO2
KALM 170815Z AUTO 05007KT 10SM CLR 18/15 A3020 RMK AO2
KALM 170755Z AUTO 00000KT 10SM CLR 19/15 A3021 RMK AO2
KALM 170735Z AUTO 00000KT 10SM CLR 19/15 A3021 RMK AO2
KALM 170715Z AUTO 00000KT 10SM CLR 19/16 A3021 RMK AO2
KALM 170655Z AUTO 15005KT 10SM CLR 18/17 A3021 RMK AO2
KALM 170635Z AUTO 17005KT 10SM CLR 18/16 A3020 RMK AO2
KALM 170615Z AUTO 32005KT 10SM CLR 20/15 A3018 RMK AO2
KALM 170555Z AUTO 32007KT 10SM CLR 21/16 A3019 RMK AO2
KALM 170535Z AUTO 35011KT 10SM CLR 20/17 A3017 RMK AO2
KALM 170515Z AUTO 33009KT 10SM FEW120 20/16 A3019 RMK AO2
KALM 170455Z AUTO 34007KT 10SM SCT120 20/17 A3019 RMK AO2
KALM 170435Z AUTO 03008KT 10SM CLR 21/17 A3020 RMK AO2
KALM 170415Z AUTO 00000KT 10SM CLR 20/16 A3020 RMK AO2
KALM 170355Z AUTO 20007KT 10SM CLR 20/17 A3020 RMK AO2
KALM 170335Z AUTO 00000KT 10SM CLR 20/16 A3019 RMK AO2
KALM 170315Z AUTO 06004KT 10SM FEW019 SCT033 20/17 A3017 RMK AO2
KALM 170255Z AUTO 16007KT 5SM -RA SCT020 BKN032 OVC070 20/17 A3017 RMK AO2 P0006
KALM 170235Z AUTO 16010KT 5SM -RA FEW021 SCT034 OVC070 22/17 A3018 RMK AO2 P0001
KALM 170215Z AUTO 16011G16KT 10SM BKN070 23/15 A3017 RMK AO2
KALM 170155Z AUTO 16018G25KT 10SM CLR 24/16 A3016 RMK AO2 LTG DSNT ALQDS
KALM 170135Z AUTO 16016G20KT 10SM CLR 25/16 A3015 RMK AO2 LTG DSNT N AND NE AND SW
KALM 170115Z AUTO 16016G22KT 10SM FEW070 SCT090 25/17 A3013 RMK AO2 LTG DSNT NE AND E
KALM 170055Z AUTO 18015G19KT 10SM FEW120 30/13 A3011 RMK AO2
KALM 170035Z AUTO 08005KT 10SM CLR 29/12 A3009 RMK AO2
KALM 170015Z AUTO 00000KT 10SM FEW120 29/12 A3010 RMK AO2
KALM 162355Z AUTO 00000KT 10SM FEW120 29/12 A3010 RMK AO2
KALM 162335Z AUTO 18005KT 10SM VCTS FEW120 29/15 A3010 RMK AO2 LTG DSNT NE
KALM 162315Z AUTO 05003KT 10SM FEW110 28/17 A3010 RMK AO2
KALM 162255Z AUTO 18008KT 10SM FEW110 28/17 A3009 RMK AO2 LTG DSNT N AND NE AND SW
KALM 162235Z AUTO 19010KT 10SM SCT110 29/17 A3010 RMK AO2
KALM 162215Z AUTO 17004KT 10SM FEW095 26/17 A3011 RMK AO2
KALM 162155Z AUTO 15005KT 10SM BKN095 23/18 A3012 RMK AO2 LTG DSNT E P0008
KALM 162135Z AUTO 17008KT 5SM -RA FEW002 SCT024 BKN049 22/17 A3012 RMK AO2 P0008
KALM 162115Z AUTO 15010KT 3SM RA FEW001 SCT015 BKN047 21/16 A3014 RMK AO2 LTG DSNT N-SE P0005
KALM 162055Z AUTO 15015G22KT 3SM RA FEW014 SCT031 BKN046 22/18 A3016 RMK AO2 P0005
KALM 162035Z AUTO 14021G25KT 10SM VCTS FEW034 SCT046 BKN100 26/15 A3016 RMK AO2 LTG DSNT SE AND S
KALM 162015Z AUTO 16013G17KT 10SM VCTS FEW034 BKN045 BKN075 26/14 A3016 RMK AO2 LTG DSNT SE-W
KALM 161955Z AUTO 15016KT 10SM VCTS FEW060 BKN080 BKN095 27/14 A3016 RMK AO2 LTG DSNT NE-SE
KALM 161935Z AUTO 19015G20KT 10SM FEW060 SCT075 BKN095 29/13 A3016 RMK AO2 LTG DSNT SE-SW
KALM 161915Z AUTO 17017G29KT 10SM TS SCT075 29/14 A3017 RMK AO2 LTG DSNT ALQDS
KALM 161855Z AUTO 27004KT 10SM VCTS FEW085 30/14 A3016 RMK AO2 LTG DSNT ALQDS
KALM 161835Z AUTO 12007KT 10SM CLR 30/14 A3017 RMK AO2 LTG DSNT SE AND S AND NW
KALM 161815Z AUTO 23008KT 030V040 10SM CLR 29/14 A3018 RMK AO2
KALM 161755Z AUTO 27005KT 10SM CLR 29/14 A3019 RMK AO2
KALM 161735Z AUTO 17009KT 10SM CLR 28/14 A3019 RMK AO2
KALM 161715Z AUTO 20006G14KT 020V030 10SM CLR 28/15 A3020 RMK AO2
KALM 161655Z AUTO 16007KT 10SM CLR 27/15 A3020 RMK AO2
KALM 161635Z AUTO 22006KT 10SM CLR 26/15 A3020 RMK AO2
KALM 161615Z AUTO 22009G14KT 10SM CLR 25/15 A3020 RMK AO2
KALM 161555Z AUTO 14008G14KT 10SM CLR 25/15 A3020 RMK AO2
KALM 161535Z AUTO 18008KT 10SM CLR 24/15 A3020 RMK AO2
KALM 161515Z AUTO 18011G15KT 10SM CLR 24/16 A3020 RMK AO2
KALM 161455Z AUTO 19006KT 10SM CLR 23/16 A3020 RMK AO2
KALM 161435Z AUTO 16009KT 10SM CLR 23/16 A3019 RMK AO2
KALM 161415Z AUTO 19010KT 10SM CLR 22/16 A3019 RMK AO2
KALM 161355Z AUTO 17009KT 10SM CLR 22/15 A3018 RMK AO2
KALM 161335Z AUTO 18008KT 10SM CLR 20/15 A3018 RMK AO2
KALM 161315Z AUTO 15005KT 10SM CLR 19/14 A3017 RMK AO2
KALM 161255Z AUTO 17007KT 10SM CLR 17/14 A3017 RMK AO2
KALM 161235Z AUTO 15004KT 10SM CLR 17/13 A3016 RMK AO2
KALM 161215Z AUTO 00000KT 10SM CLR 17/13 A3015 RMK AO2
KALM 161155Z AUTO 20006KT 10SM CLR 17/13 A3015 RMK AO2
KALM 161135Z AUTO 00000KT 10SM CLR 18/13 A3014 RMK AO2
KALM 161115Z AUTO 00000KT 10SM CLR 19/14 A3014 RMK AO2
KALM 161055Z AUTO 34004KT 10SM CLR 20/14 A3014 RMK AO2
KALM 161035Z AUTO 36004KT 10SM CLR 20/14 A3014 RMK AO2
KALM 161015Z AUTO 04005KT 10SM CLR 19/14 A3015 RMK AO2
KALM 160955Z AUTO 02003KT 10SM CLR 20/14 A3015 RMK AO2
KALM 160935Z AUTO 34003KT 10SM CLR 21/14 A3015 RMK AO2
KALM 160915Z AUTO 33003KT 10SM CLR 21/14 A3015 RMK AO2
KALM 160855Z AUTO 04005KT 10SM CLR 21/14 A3015 RMK AO2
KALM 160835Z AUTO 32004KT 10SM CLR 22/14 A3015 RMK AO2
KALM 160815Z AUTO 00000KT 10SM CLR 22/15 A3015 RMK AO2
KALM 160755Z AUTO 17004KT 10SM CLR 22/15 A3015 RMK AO2
KALM 160735Z AUTO 19005KT 10SM CLR 23/15 A3016 RMK AO2
KALM 160715Z AUTO 18008KT 10SM CLR 23/15 A3017 RMK AO2 LTG DSNT W
KALM 160655Z AUTO 17007KT 10SM CLR 23/15 A3017 RMK AO2
KALM 160635Z AUTO 18009KT 10SM CLR 23/15 A3016 RMK AO2
KALM 160615Z AUTO 18011KT 10SM CLR 23/15 A3016 RMK AO2
KALM 160555Z AUTO 17012G21KT 10SM CLR 23/16 A3017 RMK AO2 LTG DSNT NW
KALM 160535Z AUTO 16020G26KT 10SM CLR 24/16 A3016 RMK AO2
KALM 160515Z AUTO 16018G24KT 10SM FEW075 FEW095 24/15 A3016 RMK AO2
KALM 160455Z AUTO 16014G19KT 10SM CLR 24/16 A3017 RMK AO2
KALM 160435Z AUTO 18015G20KT 10SM CLR 24/15 A3017 RMK AO2
KALM 160415Z AUTO 18016G22KT 10SM CLR 24/15 A3017 RMK AO2
KALM 160355Z AUTO 18014G19KT 10SM CLR 25/16 A3016 RMK AO2
KALM 160335Z AUTO 17015G24KT 10SM CLR 25/15 A3014 RMK AO2
KALM 160315Z AUTO 19017G25KT 10SM CLR 25/15 A3012 RMK AO2
KALM 160255Z AUTO 21019G27KT 10SM CLR 26/14 A3009 RMK AO2 LTG DSNT S-W
KALM 160235Z AUTO 19014G19KT 10SM CLR 27/12 A3007 RMK AO2
KALM 160215Z AUTO 19013KT 10SM CLR 28/12 A3006 RMK AO2
KALM 160155Z AUTO 20009G14KT 10SM CLR 28/12 A3005 RMK AO2 LTG DSNT SE AND SW
KALM 160135Z AUTO 20009G15KT 10SM CLR 29/13 A3004 RMK AO2
KALM 160115Z AUTO 17011G15KT 10SM CLR 29/12 A3003 RMK AO2 LTG DSNT SW AND NW
KALM 160055Z AUTO 17012KT 10SM CLR 30/12 A3003 RMK AO2
KALM 160035Z AUTO 17013KT 10SM CLR 30/13 A3003 RMK AO2
KALM 160015Z AUTO 18011G14KT 10SM CLR 30/13 A3003 RMK AO2
KALM 152355Z AUTO 17011KT 10SM CLR 30/13 A3004 RMK AO2
KALM 152335Z AUTO 17012KT 10SM CLR 30/14 A3004 RMK AO2